sensor_id;sensor_type;location;lat;lon;timestamp;P1;durP1;ratioP1;P2;durP2;ratioP2
3865;SDS011;1948;53.250;10.412;2023-03-23T00:01:26;9.90;;;4.10;;
3865;SDS011;1948;53.250;10.412;2023-03-23T00:03:55;4.37;;;3.97;;
3865;SDS011;1948;53.250;10.412;2023-03-23T00:06:26;4.57;;;3.43;;
3865;SDS011;1948;53.250;10.412;2023-03-23T00:08:55;7.23;;;3.90;;
3865;SDS011;1948;53.250;10.412;2023-03-23T00:11:28;7.47;;;4.07;;
3865;SDS011;1948;53.250;10.412;2023-03-23T00:13:56;7.13;;;3.80;;
3865;SDS011;1948;53.250;10.412;2023-03-23T00:16:28;4.97;;;4.10;;
3865;SDS011;1948;53.250;10.412;2023-03-23T00:19:04;8.07;;;4.40;;
3865;SDS011;1948;53.250;10.412;2023-03-23T00:21:38;5.63;;;4.90;;
3865;SDS011;1948;53.250;10.412;2023-03-23T00:24:07;13.30;;;5.10;;
3865;SDS011;1948;53.250;10.412;2023-03-23T00:26:36;7.57;;;5.20;;
3865;SDS011;1948;53.250;10.412;2023-03-23T00:29:16;5.80;;;4.57;;
3865;SDS011;1948;53.250;10.412;2023-03-23T00:31:51;7.77;;;4.90;;
3865;SDS011;1948;53.250;10.412;2023-03-23T00:34:21;5.83;;;4.73;;
3865;SDS011;1948;53.250;10.412;2023-03-23T00:36:51;5.70;;;4.70;;
3865;SDS011;1948;53.250;10.412;2023-03-23T00:39:24;8.33;;;4.87;;
3865;SDS011;1948;53.250;10.412;2023-03-23T00:41:52;10.73;;;5.20;;
3865;SDS011;1948;53.250;10.412;2023-03-23T00:44:25;5.03;;;4.47;;
3865;SDS011;1948;53.250;10.412;2023-03-23T00:46:55;9.13;;;4.87;;
3865;SDS011;1948;53.250;10.412;2023-03-23T00:49:25;6.90;;;5.47;;
3865;SDS011;1948;53.250;10.412;2023-03-23T00:51:52;5.40;;;4.90;;
3865;SDS011;1948;53.250;10.412;2023-03-23T00:54:23;4.93;;;4.60;;
3865;SDS011;1948;53.250;10.412;2023-03-23T00:56:53;5.73;;;4.93;;
3865;SDS011;1948;53.250;10.412;2023-03-23T00:59:19;6.63;;;5.10;;
3865;SDS011;1948;53.250;10.412;2023-03-23T01:01:48;11.13;;;6.27;;
3865;SDS011;1948;53.250;10.412;2023-03-23T01:04:17;8.13;;;6.80;;
3865;SDS011;1948;53.250;10.412;2023-03-23T01:06:48;15.30;;;5.70;;
3865;SDS011;1948;53.250;10.412;2023-03-23T01:09:18;12.83;;;6.40;;
3865;SDS011;1948;53.250;10.412;2023-03-23T01:11:46;10.33;;;5.90;;
3865;SDS011;1948;53.250;10.412;2023-03-23T01:14:17;11.20;;;5.90;;
3865;SDS011;1948;53.250;10.412;2023-03-23T01:16:47;8.60;;;6.30;;
3865;SDS011;1948;53.250;10.412;2023-03-23T01:19:13;8.13;;;6.07;;
3865;SDS011;1948;53.250;10.412;2023-03-23T01:21:40;8.00;;;6.60;;
3865;SDS011;1948;53.250;10.412;2023-03-23T01:24:09;10.03;;;6.70;;
3865;SDS011;1948;53.250;10.412;2023-03-23T01:26:36;14.10;;;7.30;;
3865;SDS011;1948;53.250;10.412;2023-03-23T01:29:06;10.97;;;6.43;;
3865;SDS011;1948;53.250;10.412;2023-03-23T01:31:32;6.40;;;5.80;;
3865;SDS011;1948;53.250;10.412;2023-03-23T01:34:03;12.70;;;6.50;;
3865;SDS011;1948;53.250;10.412;2023-03-23T01:36:29;8.90;;;6.57;;
3865;SDS011;1948;53.250;10.412;2023-03-23T01:38:59;9.87;;;6.00;;
3865;SDS011;1948;53.250;10.412;2023-03-23T01:41:28;6.80;;;6.20;;
3865;SDS011;1948;53.250;10.412;2023-03-23T01:44:05;7.93;;;7.00;;
3865;SDS011;1948;53.250;10.412;2023-03-23T01:46:36;6.80;;;6.27;;
3865;SDS011;1948;53.250;10.412;2023-03-23T01:49:04;9.70;;;6.60;;
3865;SDS011;1948;53.250;10.412;2023-03-23T01:51:46;11.77;;;7.43;;
3865;SDS011;1948;53.250;10.412;2023-03-23T01:54:17;7.77;;;7.00;;
3865;SDS011;1948;53.250;10.412;2023-03-23T01:56:52;12.03;;;6.90;;
3865;SDS011;1948;53.250;10.412;2023-03-23T01:59:22;10.07;;;7.50;;
3865;SDS011;1948;53.250;10.412;2023-03-23T02:01:55;11.30;;;7.20;;
3865;SDS011;1948;53.250;10.412;2023-03-23T02:04:25;9.13;;;7.70;;
3865;SDS011;1948;53.250;10.412;2023-03-23T02:06:52;14.60;;;7.23;;
3865;SDS011;1948;53.250;10.412;2023-03-23T02:09:24;10.90;;;7.30;;
3865;SDS011;1948;53.250;10.412;2023-03-23T02:11:53;14.93;;;7.90;;
3865;SDS011;1948;53.250;10.412;2023-03-23T02:14:20;10.30;;;7.67;;
3865;SDS011;1948;53.250;10.412;2023-03-23T02:28:52;7.97;;;7.10;;
3865;SDS011;1948;53.250;10.412;2023-03-23T02:34:20;9.10;;;6.50;;
3865;SDS011;1948;53.250;10.412;2023-03-23T02:37:24;7.43;;;6.90;;
3865;SDS011;1948;53.250;10.412;2023-03-23T02:40:42;7.13;;;6.57;;
3865;SDS011;1948;53.250;10.412;2023-03-23T02:42:53;13.23;;;7.17;;
3865;SDS011;1948;53.250;10.412;2023-03-23T02:45:21;14.47;;;7.53;;
3865;SDS011;1948;53.250;10.412;2023-03-23T02:47:52;7.57;;;6.87;;
3865;SDS011;1948;53.250;10.412;2023-03-23T02:50:23;10.50;;;7.83;;
3865;SDS011;1948;53.250;10.412;2023-03-23T02:52:52;11.93;;;8.70;;
3865;SDS011;1948;53.250;10.412;2023-03-23T02:55:24;8.50;;;7.73;;
3865;SDS011;1948;53.250;10.412;2023-03-23T02:57:54;14.73;;;7.23;;
3865;SDS011;1948;53.250;10.412;2023-03-23T03:00:20;12.77;;;8.17;;
3865;SDS011;1948;53.250;10.412;2023-03-23T03:02:48;11.70;;;7.83;;
3865;SDS011;1948;53.250;10.412;2023-03-23T03:11:08;10.30;;;8.10;;
3865;SDS011;1948;53.250;10.412;2023-03-23T03:13:42;10.33;;;7.90;;
3865;SDS011;1948;53.250;10.412;2023-03-23T03:19:11;9.37;;;8.53;;
3865;SDS011;1948;53.250;10.412;2023-03-23T03:21:50;9.90;;;8.33;;
3865;SDS011;1948;53.250;10.412;2023-03-23T03:24:20;12.17;;;7.70;;
3865;SDS011;1948;53.250;10.412;2023-03-23T03:26:48;9.07;;;7.33;;
3865;SDS011;1948;53.250;10.412;2023-03-23T03:29:18;11.43;;;8.53;;
3865;SDS011;1948;53.250;10.412;2023-03-23T03:31:52;9.77;;;8.20;;
3865;SDS011;1948;53.250;10.412;2023-03-23T03:34:22;7.80;;;7.20;;
3865;SDS011;1948;53.250;10.412;2023-03-23T03:36:51;8.67;;;7.80;;
3865;SDS011;1948;53.250;10.412;2023-03-23T03:39:23;11.90;;;8.47;;
3865;SDS011;1948;53.250;10.412;2023-03-23T03:41:50;8.67;;;8.00;;
3865;SDS011;1948;53.250;10.412;2023-03-23T03:44:16;10.40;;;8.60;;
3865;SDS011;1948;53.250;10.412;2023-03-23T03:46:45;9.60;;;8.20;;
3865;SDS011;1948;53.250;10.412;2023-03-23T03:49:11;9.37;;;8.40;;
3865;SDS011;1948;53.250;10.412;2023-03-23T03:51:37;10.37;;;7.87;;
3865;SDS011;1948;53.250;10.412;2023-03-23T03:54:07;9.33;;;8.13;;
3865;SDS011;1948;53.250;10.412;2023-03-23T03:56:33;9.20;;;8.40;;
3865;SDS011;1948;53.250;10.412;2023-03-23T03:59:02;10.40;;;8.63;;
3865;SDS011;1948;53.250;10.412;2023-03-23T04:01:31;9.90;;;9.00;;
3865;SDS011;1948;53.250;10.412;2023-03-23T04:04:01;8.30;;;7.60;;
3865;SDS011;1948;53.250;10.412;2023-03-23T04:06:30;9.53;;;8.70;;
3865;SDS011;1948;53.250;10.412;2023-03-23T04:08:58;12.97;;;8.83;;
3865;SDS011;1948;53.250;10.412;2023-03-23T04:11:26;12.73;;;8.60;;
3865;SDS011;1948;53.250;10.412;2023-03-23T04:13:52;10.77;;;9.27;;
3865;SDS011;1948;53.250;10.412;2023-03-23T04:16:21;12.10;;;7.80;;
3865;SDS011;1948;53.250;10.412;2023-03-23T04:18:49;8.80;;;8.10;;
3865;SDS011;1948;53.250;10.412;2023-03-23T04:21:15;9.37;;;8.47;;
3865;SDS011;1948;53.250;10.412;2023-03-23T04:23:43;10.37;;;9.47;;
3865;SDS011;1948;53.250;10.412;2023-03-23T04:26:09;13.23;;;8.77;;
3865;SDS011;1948;53.250;10.412;2023-03-23T04:28:38;9.27;;;8.37;;
3865;SDS011;1948;53.250;10.412;2023-03-23T04:31:07;12.90;;;8.27;;
3865;SDS011;1948;53.250;10.412;2023-03-23T04:33:34;9.33;;;7.80;;
3865;SDS011;1948;53.250;10.412;2023-03-23T04:36:02;9.70;;;8.57;;
3865;SDS011;1948;53.250;10.412;2023-03-23T04:38:30;9.53;;;7.60;;
3865;SDS011;1948;53.250;10.412;2023-03-23T04:40:58;10.20;;;8.57;;
3865;SDS011;1948;53.250;10.412;2023-03-23T04:43:27;8.63;;;7.83;;
3865;SDS011;1948;53.250;10.412;2023-03-23T04:45:54;8.83;;;7.67;;
3865;SDS011;1948;53.250;10.412;2023-03-23T04:48:26;7.23;;;6.83;;
3865;SDS011;1948;53.250;10.412;2023-03-23T04:50:58;10.90;;;7.60;;
3865;SDS011;1948;53.250;10.412;2023-03-23T04:53:29;9.00;;;7.60;;
3865;SDS011;1948;53.250;10.412;2023-03-23T04:55:56;7.07;;;6.57;;
3865;SDS011;1948;53.250;10.412;2023-03-23T04:58:22;7.23;;;6.80;;
3865;SDS011;1948;53.250;10.412;2023-03-23T05:00:53;8.60;;;6.20;;
3865;SDS011;1948;53.250;10.412;2023-03-23T05:03:19;7.17;;;6.50;;
3865;SDS011;1948;53.250;10.412;2023-03-23T05:05:45;6.93;;;6.43;;
3865;SDS011;1948;53.250;10.412;2023-03-23T05:08:17;7.07;;;6.50;;
3865;SDS011;1948;53.250;10.412;2023-03-23T05:10:49;9.20;;;6.50;;
3865;SDS011;1948;53.250;10.412;2023-03-23T05:13:20;6.53;;;6.07;;
3865;SDS011;1948;53.250;10.412;2023-03-23T05:15:47;7.90;;;6.43;;
3865;SDS011;1948;53.250;10.412;2023-03-23T05:18:13;6.03;;;5.73;;
3865;SDS011;1948;53.250;10.412;2023-03-23T05:20:40;6.67;;;6.13;;
3865;SDS011;1948;53.250;10.412;2023-03-23T05:23:07;6.57;;;6.07;;
3865;SDS011;1948;53.250;10.412;2023-03-23T05:25:37;6.20;;;5.67;;
3865;SDS011;1948;53.250;10.412;2023-03-23T05:28:11;6.67;;;6.00;;
3865;SDS011;1948;53.250;10.412;2023-03-23T05:30:38;6.70;;;6.20;;
3865;SDS011;1948;53.250;10.412;2023-03-23T05:33:08;6.10;;;5.57;;
3865;SDS011;1948;53.250;10.412;2023-03-23T05:35:36;8.87;;;5.57;;
3865;SDS011;1948;53.250;10.412;2023-03-23T05:38:01;7.63;;;5.50;;
3865;SDS011;1948;53.250;10.412;2023-03-23T05:40:28;5.50;;;5.00;;
3865;SDS011;1948;53.250;10.412;2023-03-23T05:42:55;5.93;;;5.43;;
3865;SDS011;1948;53.250;10.412;2023-03-23T05:45:25;4.90;;;4.60;;
3865;SDS011;1948;53.250;10.412;2023-03-23T05:47:51;5.07;;;4.73;;
3865;SDS011;1948;53.250;10.412;2023-03-23T05:50:18;5.03;;;4.77;;
3865;SDS011;1948;53.250;10.412;2023-03-23T05:52:44;5.40;;;5.10;;
3865;SDS011;1948;53.250;10.412;2023-03-23T05:55:12;5.20;;;5.00;;
3865;SDS011;1948;53.250;10.412;2023-03-23T05:57:39;5.33;;;4.90;;
3865;SDS011;1948;53.250;10.412;2023-03-23T06:00:05;5.43;;;4.73;;
3865;SDS011;1948;53.250;10.412;2023-03-23T06:02:45;4.77;;;4.40;;
3865;SDS011;1948;53.250;10.412;2023-03-23T06:05:17;5.33;;;4.53;;
3865;SDS011;1948;53.250;10.412;2023-03-23T06:07:45;4.93;;;4.53;;
3865;SDS011;1948;53.250;10.412;2023-03-23T06:10:11;5.70;;;4.10;;
3865;SDS011;1948;53.250;10.412;2023-03-23T06:12:38;3.90;;;3.60;;
3865;SDS011;1948;53.250;10.412;2023-03-23T06:15:05;5.67;;;4.33;;
3865;SDS011;1948;53.250;10.412;2023-03-23T06:17:33;4.60;;;4.30;;
3865;SDS011;1948;53.250;10.412;2023-03-23T06:20:03;4.80;;;4.40;;
3865;SDS011;1948;53.250;10.412;2023-03-23T06:22:36;4.20;;;3.80;;
3865;SDS011;1948;53.250;10.412;2023-03-23T06:25:04;3.70;;;3.50;;
3865;SDS011;1948;53.250;10.412;2023-03-23T06:27:32;3.80;;;3.60;;
3865;SDS011;1948;53.250;10.412;2023-03-23T06:29:58;7.50;;;3.20;;
3865;SDS011;1948;53.250;10.412;2023-03-23T06:32:24;3.77;;;3.60;;
3865;SDS011;1948;53.250;10.412;2023-03-23T06:34:53;3.63;;;3.43;;
3865;SDS011;1948;53.250;10.412;2023-03-23T06:37:19;4.07;;;3.60;;
3865;SDS011;1948;53.250;10.412;2023-03-23T06:39:45;4.63;;;3.27;;
3865;SDS011;1948;53.250;10.412;2023-03-23T06:42:14;3.43;;;3.00;;
3865;SDS011;1948;53.250;10.412;2023-03-23T06:44:40;4.50;;;3.70;;
3865;SDS011;1948;53.250;10.412;2023-03-23T06:47:08;3.47;;;3.20;;
3865;SDS011;1948;53.250;10.412;2023-03-23T06:49:34;5.30;;;3.37;;
3865;SDS011;1948;53.250;10.412;2023-03-23T06:52:00;2.93;;;2.63;;
3865;SDS011;1948;53.250;10.412;2023-03-23T06:54:29;5.47;;;3.17;;
3865;SDS011;1948;53.250;10.412;2023-03-23T06:56:55;3.30;;;2.97;;
3865;SDS011;1948;53.250;10.412;2023-03-23T06:59:21;3.23;;;3.10;;
3865;SDS011;1948;53.250;10.412;2023-03-23T07:01:47;4.03;;;2.70;;
3865;SDS011;1948;53.250;10.412;2023-03-23T07:04:13;4.60;;;3.00;;
3865;SDS011;1948;53.250;10.412;2023-03-23T07:06:39;2.43;;;2.40;;
3865;SDS011;1948;53.250;10.412;2023-03-23T07:09:05;5.23;;;3.43;;
3865;SDS011;1948;53.250;10.412;2023-03-23T07:11:31;2.97;;;2.73;;
3865;SDS011;1948;53.250;10.412;2023-03-23T07:14:01;2.87;;;2.70;;
3865;SDS011;1948;53.250;10.412;2023-03-23T07:16:27;4.70;;;2.80;;
3865;SDS011;1948;53.250;10.412;2023-03-23T07:18:56;7.87;;;2.80;;
3865;SDS011;1948;53.250;10.412;2023-03-23T07:21:22;8.43;;;2.83;;
3865;SDS011;1948;53.250;10.412;2023-03-23T07:23:47;3.13;;;3.00;;
3865;SDS011;1948;53.250;10.412;2023-03-23T07:26:13;2.63;;;2.47;;
3865;SDS011;1948;53.250;10.412;2023-03-23T07:28:39;6.23;;;2.97;;
3865;SDS011;1948;53.250;10.412;2023-03-23T07:31:05;3.60;;;2.50;;
3865;SDS011;1948;53.250;10.412;2023-03-23T07:33:34;4.23;;;2.37;;
3865;SDS011;1948;53.250;10.412;2023-03-23T07:36:01;4.50;;;3.03;;
3865;SDS011;1948;53.250;10.412;2023-03-23T07:38:31;2.80;;;2.70;;
3865;SDS011;1948;53.250;10.412;2023-03-23T07:40:57;2.87;;;2.20;;
3865;SDS011;1948;53.250;10.412;2023-03-23T07:43:26;2.77;;;2.67;;
3865;SDS011;1948;53.250;10.412;2023-03-23T07:45:54;3.13;;;2.67;;
3865;SDS011;1948;53.250;10.412;2023-03-23T07:48:20;2.13;;;2.00;;
3865;SDS011;1948;53.250;10.412;2023-03-23T07:50:46;2.70;;;2.60;;
3865;SDS011;1948;53.250;10.412;2023-03-23T07:53:12;7.30;;;2.97;;
3865;SDS011;1948;53.250;10.412;2023-03-23T07:55:38;2.53;;;2.33;;
3865;SDS011;1948;53.250;10.412;2023-03-23T07:58:06;2.67;;;2.57;;
3865;SDS011;1948;53.250;10.412;2023-03-23T08:00:35;2.60;;;2.60;;
3865;SDS011;1948;53.250;10.412;2023-03-23T08:03:07;9.30;;;2.93;;
3865;SDS011;1948;53.250;10.412;2023-03-23T08:05:36;2.63;;;2.50;;
3865;SDS011;1948;53.250;10.412;2023-03-23T08:08:02;2.20;;;2.20;;
3865;SDS011;1948;53.250;10.412;2023-03-23T08:10:29;6.27;;;3.07;;
3865;SDS011;1948;53.250;10.412;2023-03-23T08:12:56;3.57;;;2.83;;
3865;SDS011;1948;53.250;10.412;2023-03-23T08:15:25;2.60;;;2.50;;
3865;SDS011;1948;53.250;10.412;2023-03-23T08:17:51;2.10;;;2.00;;
3865;SDS011;1948;53.250;10.412;2023-03-23T08:20:20;5.20;;;2.27;;
3865;SDS011;1948;53.250;10.412;2023-03-23T08:22:54;6.33;;;3.80;;
3865;SDS011;1948;53.250;10.412;2023-03-23T08:25:23;2.23;;;2.23;;
3865;SDS011;1948;53.250;10.412;2023-03-23T08:27:51;2.40;;;2.30;;
3865;SDS011;1948;53.250;10.412;2023-03-23T08:30:18;2.57;;;2.47;;
3865;SDS011;1948;53.250;10.412;2023-03-23T08:32:47;2.57;;;2.47;;
3865;SDS011;1948;53.250;10.412;2023-03-23T08:35:16;2.63;;;2.53;;
3865;SDS011;1948;53.250;10.412;2023-03-23T08:37:44;2.70;;;2.27;;
3865;SDS011;1948;53.250;10.412;2023-03-23T08:40:12;2.50;;;2.40;;
3865;SDS011;1948;53.250;10.412;2023-03-23T08:42:41;3.17;;;2.30;;
3865;SDS011;1948;53.250;10.412;2023-03-23T08:45:11;2.60;;;2.50;;
3865;SDS011;1948;53.250;10.412;2023-03-23T08:47:42;9.43;;;2.63;;
3865;SDS011;1948;53.250;10.412;2023-03-23T08:50:15;2.80;;;2.70;;
3865;SDS011;1948;53.250;10.412;2023-03-23T08:52:51;2.20;;;2.20;;
3865;SDS011;1948;53.250;10.412;2023-03-23T08:55:20;2.10;;;2.00;;
3865;SDS011;1948;53.250;10.412;2023-03-23T08:57:52;4.83;;;2.30;;
3865;SDS011;1948;53.250;10.412;2023-03-23T09:00:18;3.73;;;3.43;;
3865;SDS011;1948;53.250;10.412;2023-03-23T09:02:50;2.40;;;2.30;;
3865;SDS011;1948;53.250;10.412;2023-03-23T09:05:19;4.73;;;2.70;;
3865;SDS011;1948;53.250;10.412;2023-03-23T09:07:50;7.87;;;2.43;;
3865;SDS011;1948;53.250;10.412;2023-03-23T09:10:19;4.50;;;2.83;;
3865;SDS011;1948;53.250;10.412;2023-03-23T09:12:46;3.50;;;2.67;;
3865;SDS011;1948;53.250;10.412;2023-03-23T09:15:14;2.67;;;2.60;;
3865;SDS011;1948;53.250;10.412;2023-03-23T09:17:44;3.00;;;2.90;;
3865;SDS011;1948;53.250;10.412;2023-03-23T09:20:14;3.10;;;2.90;;
3865;SDS011;1948;53.250;10.412;2023-03-23T09:22:44;10.67;;;2.70;;
3865;SDS011;1948;53.250;10.412;2023-03-23T09:25:16;2.53;;;2.43;;
3865;SDS011;1948;53.250;10.412;2023-03-23T09:27:49;5.07;;;2.30;;
3865;SDS011;1948;53.250;10.412;2023-03-23T09:30:24;3.93;;;2.70;;
3865;SDS011;1948;53.250;10.412;2023-03-23T09:32:53;6.97;;;2.70;;
3865;SDS011;1948;53.250;10.412;2023-03-23T09:35:20;7.90;;;2.00;;
3865;SDS011;1948;53.250;10.412;2023-03-23T09:37:48;5.00;;;1.73;;
3865;SDS011;1948;53.250;10.412;2023-03-23T09:40:17;4.53;;;2.00;;
3865;SDS011;1948;53.250;10.412;2023-03-23T09:56:55;3.00;;;2.23;;
3865;SDS011;1948;53.250;10.412;2023-03-23T09:59:27;6.90;;;2.57;;
3865;SDS011;1948;53.250;10.412;2023-03-23T10:02:24;5.20;;;2.10;;
3865;SDS011;1948;53.250;10.412;2023-03-23T10:05:30;4.60;;;2.13;;
3865;SDS011;1948;53.250;10.412;2023-03-23T10:08:05;5.97;;;2.50;;
3865;SDS011;1948;53.250;10.412;2023-03-23T10:16:11;7.77;;;2.80;;
3865;SDS011;1948;53.250;10.412;2023-03-23T10:19:15;7.63;;;2.40;;
3865;SDS011;1948;53.250;10.412;2023-03-23T10:22:03;9.53;;;2.80;;
3865;SDS011;1948;53.250;10.412;2023-03-23T10:24:43;20.77;;;3.30;;
3865;SDS011;1948;53.250;10.412;2023-03-23T10:29:57;9.33;;;2.60;;
3865;SDS011;1948;53.250;10.412;2023-03-23T10:38:42;8.53;;;2.20;;
3865;SDS011;1948;53.250;10.412;2023-03-23T10:41:41;13.10;;;2.83;;
3865;SDS011;1948;53.250;10.412;2023-03-23T10:44:13;10.03;;;2.43;;
3865;SDS011;1948;53.250;10.412;2023-03-23T10:49:43;14.60;;;2.93;;
3865;SDS011;1948;53.250;10.412;2023-03-23T10:52:36;19.40;;;3.80;;
3865;SDS011;1948;53.250;10.412;2023-03-23T10:57:39;14.20;;;3.30;;
3865;SDS011;1948;53.250;10.412;2023-03-23T11:00:17;9.73;;;2.83;;
3865;SDS011;1948;53.250;10.412;2023-03-23T11:05:59;11.53;;;3.37;;
3865;SDS011;1948;53.250;10.412;2023-03-23T11:08:33;10.60;;;2.43;;
3865;SDS011;1948;53.250;10.412;2023-03-23T11:11:19;8.13;;;2.80;;
3865;SDS011;1948;53.250;10.412;2023-03-23T11:13:52;7.20;;;3.03;;
3865;SDS011;1948;53.250;10.412;2023-03-23T11:19:14;13.23;;;2.93;;
3865;SDS011;1948;53.250;10.412;2023-03-23T11:21:47;7.50;;;2.13;;
3865;SDS011;1948;53.250;10.412;2023-03-23T11:24:20;10.33;;;2.73;;
3865;SDS011;1948;53.250;10.412;2023-03-23T11:26:48;28.80;;;3.00;;
3865;SDS011;1948;53.250;10.412;2023-03-23T11:29:21;4.47;;;2.37;;
3865;SDS011;1948;53.250;10.412;2023-03-23T11:31:51;10.43;;;3.03;;
3865;SDS011;1948;53.250;10.412;2023-03-23T11:37:03;11.00;;;3.10;;
3865;SDS011;1948;53.250;10.412;2023-03-23T11:39:33;10.73;;;2.67;;
3865;SDS011;1948;53.250;10.412;2023-03-23T11:42:24;7.27;;;2.40;;
3865;SDS011;1948;53.250;10.412;2023-03-23T11:45:13;5.73;;;2.63;;
3865;SDS011;1948;53.250;10.412;2023-03-23T11:50:51;3.40;;;2.63;;
3865;SDS011;1948;53.250;10.412;2023-03-23T11:53:27;3.30;;;2.30;;
3865;SDS011;1948;53.250;10.412;2023-03-23T11:56:37;9.07;;;2.43;;
3865;SDS011;1948;53.250;10.412;2023-03-23T11:59:33;9.60;;;2.70;;
3865;SDS011;1948;53.250;10.412;2023-03-23T12:05:23;11.03;;;2.80;;
3865;SDS011;1948;53.250;10.412;2023-03-23T12:22:46;11.63;;;2.87;;
3865;SDS011;1948;53.250;10.412;2023-03-23T12:28:50;14.50;;;4.77;;
3865;SDS011;1948;53.250;10.412;2023-03-23T12:40:15;15.53;;;3.80;;
3865;SDS011;1948;53.250;10.412;2023-03-23T12:48:28;15.10;;;4.10;;
3865;SDS011;1948;53.250;10.412;2023-03-23T12:56:26;12.67;;;4.00;;
3865;SDS011;1948;53.250;10.412;2023-03-23T13:02:15;14.67;;;4.43;;
3865;SDS011;1948;53.250;10.412;2023-03-23T13:07:50;12.67;;;5.50;;
3865;SDS011;1948;53.250;10.412;2023-03-23T13:10:50;10.87;;;4.07;;
3865;SDS011;1948;53.250;10.412;2023-03-23T13:13:20;13.13;;;4.40;;
3865;SDS011;1948;53.250;10.412;2023-03-23T13:16:01;4.73;;;3.73;;
3865;SDS011;1948;53.250;10.412;2023-03-23T13:21:58;13.10;;;3.67;;
3865;SDS011;1948;53.250;10.412;2023-03-23T13:24:43;6.77;;;3.03;;
3865;SDS011;1948;53.250;10.412;2023-03-23T13:27:41;3.53;;;2.83;;
3865;SDS011;1948;53.250;10.412;2023-03-23T13:30:17;6.57;;;2.97;;
3865;SDS011;1948;53.250;10.412;2023-03-23T13:32:49;3.50;;;2.57;;
3865;SDS011;1948;53.250;10.412;2023-03-23T13:35:18;1.93;;;1.83;;
3865;SDS011;1948;53.250;10.412;2023-03-23T13:37:48;3.97;;;1.90;;
3865;SDS011;1948;53.250;10.412;2023-03-23T13:42:58;3.43;;;1.97;;
3865;SDS011;1948;53.250;10.412;2023-03-23T13:50:57;4.40;;;1.90;;
3865;SDS011;1948;53.250;10.412;2023-03-23T13:56:13;3.30;;;1.93;;
3865;SDS011;1948;53.250;10.412;2023-03-23T13:58:48;5.53;;;1.50;;
3865;SDS011;1948;53.250;10.412;2023-03-23T14:01:36;3.30;;;1.30;;
3865;SDS011;1948;53.250;10.412;2023-03-23T14:04:07;1.73;;;1.10;;
3865;SDS011;1948;53.250;10.412;2023-03-23T14:06:43;2.13;;;1.90;;
3865;SDS011;1948;53.250;10.412;2023-03-23T14:09:14;1.50;;;1.50;;
3865;SDS011;1948;53.250;10.412;2023-03-23T14:11:51;1.50;;;1.40;;
3865;SDS011;1948;53.250;10.412;2023-03-23T14:14:23;2.70;;;1.30;;
3865;SDS011;1948;53.250;10.412;2023-03-23T14:19:46;1.80;;;1.63;;
3865;SDS011;1948;53.250;10.412;2023-03-23T14:22:38;1.70;;;1.30;;
3865;SDS011;1948;53.250;10.412;2023-03-23T14:25:11;3.57;;;1.50;;
3865;SDS011;1948;53.250;10.412;2023-03-23T14:27:46;5.97;;;1.47;;
3865;SDS011;1948;53.250;10.412;2023-03-23T14:30:19;4.07;;;1.20;;
3865;SDS011;1948;53.250;10.412;2023-03-23T14:32:52;3.53;;;1.40;;
3865;SDS011;1948;53.250;10.412;2023-03-23T14:35:33;1.30;;;1.20;;
3865;SDS011;1948;53.250;10.412;2023-03-23T14:38:02;1.33;;;1.07;;
3865;SDS011;1948;53.250;10.412;2023-03-23T14:40:29;1.43;;;1.23;;
3865;SDS011;1948;53.250;10.412;2023-03-23T14:42:58;3.07;;;1.40;;
3865;SDS011;1948;53.250;10.412;2023-03-23T14:45:29;1.57;;;1.47;;
3865;SDS011;1948;53.250;10.412;2023-03-23T14:47:57;5.60;;;2.03;;
3865;SDS011;1948;53.250;10.412;2023-03-23T14:53:13;3.37;;;2.40;;
3865;SDS011;1948;53.250;10.412;2023-03-23T14:55:46;1.43;;;1.43;;
3865;SDS011;1948;53.250;10.412;2023-03-23T14:58:17;2.53;;;1.70;;
3865;SDS011;1948;53.250;10.412;2023-03-23T15:00:59;1.83;;;1.10;;
3865;SDS011;1948;53.250;10.412;2023-03-23T15:03:34;4.97;;;2.20;;
3865;SDS011;1948;53.250;10.412;2023-03-23T15:06:05;6.83;;;5.60;;
3865;SDS011;1948;53.250;10.412;2023-03-23T15:08:42;2.53;;;2.00;;
3865;SDS011;1948;53.250;10.412;2023-03-23T15:11:20;3.00;;;2.80;;
3865;SDS011;1948;53.250;10.412;2023-03-23T15:13:52;2.40;;;1.43;;
3865;SDS011;1948;53.250;10.412;2023-03-23T15:16:28;2.50;;;1.73;;
3865;SDS011;1948;53.250;10.412;2023-03-23T15:19:06;3.67;;;1.33;;
3865;SDS011;1948;53.250;10.412;2023-03-23T15:21:46;5.50;;;2.70;;
3865;SDS011;1948;53.250;10.412;2023-03-23T15:24:41;6.80;;;2.20;;
3865;SDS011;1948;53.250;10.412;2023-03-23T15:27:24;4.00;;;2.13;;
3865;SDS011;1948;53.250;10.412;2023-03-23T15:29:56;7.50;;;3.63;;
3865;SDS011;1948;53.250;10.412;2023-03-23T15:32:30;4.53;;;3.83;;
3865;SDS011;1948;53.250;10.412;2023-03-23T15:35:04;3.23;;;2.93;;
3865;SDS011;1948;53.250;10.412;2023-03-23T15:37:42;4.63;;;2.70;;
3865;SDS011;1948;53.250;10.412;2023-03-23T15:40:17;2.30;;;1.83;;
3865;SDS011;1948;53.250;10.412;2023-03-23T15:42:49;2.57;;;2.17;;
3865;SDS011;1948;53.250;10.412;2023-03-23T15:45:58;3.03;;;1.90;;
3865;SDS011;1948;53.250;10.412;2023-03-23T15:48:28;8.10;;;2.00;;
3865;SDS011;1948;53.250;10.412;2023-03-23T15:51:11;4.90;;;2.87;;
3865;SDS011;1948;53.250;10.412;2023-03-23T15:53:40;5.10;;;2.37;;
3865;SDS011;1948;53.250;10.412;2023-03-23T15:56:10;6.40;;;3.77;;
3865;SDS011;1948;53.250;10.412;2023-03-23T15:58:43;2.73;;;2.53;;
3865;SDS011;1948;53.250;10.412;2023-03-23T16:01:31;5.53;;;3.10;;
3865;SDS011;1948;53.250;10.412;2023-03-23T16:04:03;3.63;;;2.57;;
3865;SDS011;1948;53.250;10.412;2023-03-23T16:06:34;6.13;;;2.00;;
3865;SDS011;1948;53.250;10.412;2023-03-23T16:09:02;3.43;;;1.80;;
3865;SDS011;1948;53.250;10.412;2023-03-23T16:11:31;3.57;;;2.47;;
3865;SDS011;1948;53.250;10.412;2023-03-23T16:14:01;6.83;;;1.90;;
3865;SDS011;1948;53.250;10.412;2023-03-23T16:19:03;6.50;;;2.77;;
3865;SDS011;1948;53.250;10.412;2023-03-23T16:21:31;2.30;;;1.80;;
3865;SDS011;1948;53.250;10.412;2023-03-23T16:24:01;11.70;;;2.50;;
3865;SDS011;1948;53.250;10.412;2023-03-23T16:26:28;3.13;;;1.70;;
3865;SDS011;1948;53.250;10.412;2023-03-23T16:28:55;6.70;;;2.03;;
3865;SDS011;1948;53.250;10.412;2023-03-23T16:31:38;7.50;;;2.10;;
3865;SDS011;1948;53.250;10.412;2023-03-23T16:34:07;9.97;;;1.97;;
3865;SDS011;1948;53.250;10.412;2023-03-23T16:36:34;4.47;;;2.17;;
3865;SDS011;1948;53.250;10.412;2023-03-23T16:39:02;7.47;;;2.50;;
3865;SDS011;1948;53.250;10.412;2023-03-23T16:41:32;6.73;;;1.93;;
3865;SDS011;1948;53.250;10.412;2023-03-23T16:44:01;4.57;;;2.23;;
3865;SDS011;1948;53.250;10.412;2023-03-23T16:46:31;9.33;;;2.10;;
3865;SDS011;1948;53.250;10.412;2023-03-23T16:48:58;2.50;;;2.30;;
3865;SDS011;1948;53.250;10.412;2023-03-23T16:51:25;6.30;;;1.77;;
3865;SDS011;1948;53.250;10.412;2023-03-23T16:53:52;5.87;;;2.10;;
3865;SDS011;1948;53.250;10.412;2023-03-23T16:56:22;2.10;;;1.60;;
3865;SDS011;1948;53.250;10.412;2023-03-23T16:58:54;2.40;;;1.93;;
3865;SDS011;1948;53.250;10.412;2023-03-23T17:01:21;3.07;;;1.67;;
3865;SDS011;1948;53.250;10.412;2023-03-23T17:03:48;1.93;;;1.60;;
3865;SDS011;1948;53.250;10.412;2023-03-23T17:06:15;2.57;;;2.33;;
3865;SDS011;1948;53.250;10.412;2023-03-23T17:08:44;7.07;;;2.80;;
3865;SDS011;1948;53.250;10.412;2023-03-23T17:11:14;4.23;;;2.30;;
3865;SDS011;1948;53.250;10.412;2023-03-23T17:13:41;5.47;;;2.80;;
3865;SDS011;1948;53.250;10.412;2023-03-23T17:16:12;4.30;;;2.10;;
3865;SDS011;1948;53.250;10.412;2023-03-23T17:18:39;7.73;;;2.50;;
3865;SDS011;1948;53.250;10.412;2023-03-23T17:21:09;4.63;;;2.40;;
3865;SDS011;1948;53.250;10.412;2023-03-23T17:23:36;10.50;;;2.23;;
3865;SDS011;1948;53.250;10.412;2023-03-23T17:26:07;5.87;;;2.30;;
3865;SDS011;1948;53.250;10.412;2023-03-23T17:28:34;7.50;;;3.60;;
3865;SDS011;1948;53.250;10.412;2023-03-23T17:31:05;4.90;;;2.70;;
3865;SDS011;1948;53.250;10.412;2023-03-23T17:33:35;10.87;;;3.73;;
3865;SDS011;1948;53.250;10.412;2023-03-23T17:36:02;8.93;;;4.23;;
3865;SDS011;1948;53.250;10.412;2023-03-23T17:38:29;4.00;;;2.47;;
3865;SDS011;1948;53.250;10.412;2023-03-23T17:41:01;7.73;;;3.20;;
3865;SDS011;1948;53.250;10.412;2023-03-23T17:43:33;3.70;;;3.40;;